Time;durP1;ratioP1;P1;durP2;ratioP2;P2;SDS_P1;SDS_P2;PMS_P1;PMS_P2;Temp;Humidity;BMP_temperature;BMP_pressure;BME280_temperature;BME280_humidity;BME280_pressure;Samples;Min_cycle;Max_cycle;Signal;HPM_P1;HPM_P2
2021/11/17 02:27:09;;;;;;;50.35;16.95;;;;;;;8.18;93.49;98260.19;4989387;28;20534;-56
2021/11/17 02:29:54;;;;;;;46.75;16.55;;;;;;;8.16;89.32;98257.66;4989666;28;20033;-55
2021/11/17 02:32:46;;;;;;;56.95;17.88;;;;;;;8.08;94.40;98264.81;4976641;28;20038;-55
2021/11/17 02:35:31;;;;;;;32.17;12.90;;;;;;;7.96;88.25;98250.41;4989767;28;20097;-56
2021/11/17 02:38:22;;;;;;;51.72;17.98;;;;;;;7.89;89.55;98259.25;4990603;28;20535;-55
2021/11/17 02:41:12;;;;;;;51.40;17.48;;;;;;;7.76;90.25;98258.72;4990154;28;20053;-56
2021/11/17 02:43:56;;;;;;;43.25;15.70;;;;;;;8.01;89.21;98260.66;4998200;28;20034;-55
2021/11/17 02:46:37;;;;;;;52.38;16.45;;;;;;;7.87;89.22;98259.28;4997739;28;20038;-55
2021/11/17 02:49:09;;;;;;;51.90;17.90;;;;;;;7.70;89.31;98261.44;4989159;28;20812;-55
2021/11/17 02:52:09;;;;;;;48.57;16.60;;;;;;;8.38;86.02;98257.94;4987922;28;20507;-56
2021/11/17 02:54:41;;;;;;;31.08;11.93;;;;;;;8.44;89.31;98259.53;4983181;28;20852;-56
2021/11/17 02:57:36;;;;;;;49.80;16.75;;;;;;;8.52;93.87;98246.31;4990517;28;20042;-56
2021/11/17 03:00:20;;;;;;;37.15;13.80;;;;;;;7.82;90.84;98247.31;4998374;28;20723;-56
2021/11/17 03:02:54;;;;;;;48.72;16.67;;;;;;;7.93;95.02;98254.81;4994328;28;20049;-55
2021/11/17 03:05:32;;;;;;;48.33;16.48;;;;;;;7.62;91.80;98256.44;4988519;28;20022;-55
2021/11/17 03:08:13;;;;;;;43.70;16.20;;;;;;;8.10;91.09;98255.22;4989370;28;20030;-57
2021/11/17 03:10:53;;;;;;;48.60;15.10;;;;;;;7.95;90.97;98258.22;4990648;28;20046;-56
2021/11/17 03:13:33;;;;;;;45.63;15.82;;;;;;;7.79;89.53;98258.59;4991159;28;20049;-58
2021/11/17 03:16:20;;;;;;;46.28;15.55;;;;;;;7.76;92.11;98258.72;4987661;28;20052;-59
2021/11/17 03:18:56;;;;;;;41.13;15.38;;;;;;;7.80;89.26;98255.13;4988908;28;20085;-58
2021/11/17 03:21:27;;;;;;;43.67;15.15;;;;;;;7.93;91.82;98265.22;4991028;28;20046;-57
2021/11/17 03:24:30;;;;;;;50.87;15.50;;;;;;;8.01;90.12;98266.69;4989955;28;20069;-56
2021/11/17 03:26:58;;;;;;;48.67;16.35;;;;;;;8.09;89.42;98266.53;4985152;28;20042;-57
2021/11/17 03:29:42;;;;;;;46.20;15.57;;;;;;;8.22;87.71;98262.69;4988219;28;20033;-56
2021/11/17 03:32:26;;;;;;;40.95;13.63;;;;;;;7.85;92.09;98265.41;4986394;28;20043;-57
2021/11/17 03:35:10;;;;;;;39.30;12.98;;;;;;;7.99;93.60;98270.25;4991905;28;20034;-57
2021/11/17 03:38:01;;;;;;;44.45;14.38;;;;;;;7.86;89.57;98262.75;4990025;28;20034;-57
2021/11/17 03:41:04;;;;;;;33.92;13.55;;;;;;;7.86;91.14;98260.16;4987095;28;20039;-57
2021/11/17 03:43:56;;;;;;;41.08;13.38;;;;;;;7.69;89.92;98254.56;4959230;28;20033;-58
2021/11/17 03:46:21;;;;;;;42.67;13.77;;;;;;;8.30;91.92;98260.72;4987159;28;20125;-56
2021/11/17 03:49:01;;;;;;;43.28;14.07;;;;;;;7.69;90.99;98254.56;4990391;28;20030;-59
2021/11/17 03:51:29;;;;;;;40.30;13.77;;;;;;;7.67;92.55;98262.38;4990001;28;20045;-56
2021/11/17 03:54:07;;;;;;;36.88;12.85;;;;;;;7.97;90.55;98256.44;4988802;28;20030;-56
2021/11/17 03:56:39;;;;;;;35.83;12.95;;;;;;;7.92;94.40;98261.75;4989137;28;20050;-56
2021/11/17 03:59:07;;;;;;;37.40;13.27;;;;;;;8.36;92.26;98258.84;4987583;28;20022;-57
2021/11/17 04:01:41;;;;;;;36.53;12.68;;;;;;;7.88;90.64;98255.81;4986050;28;20049;-56
2021/11/17 04:04:22;;;;;;;28.92;11.25;;;;;;;8.00;93.02;98253.78;4987796;28;20054;-57
2021/11/17 04:06:47;;;;;;;31.67;12.10;;;;;;;8.01;91.35;98258.06;4990233;28;20096;-56
2021/11/17 04:09:33;;;;;;;31.40;11.98;;;;;;;7.86;92.41;98252.38;4988299;28;20022;-57
2021/11/17 04:12:44;;;;;;;34.72;12.00;;;;;;;8.09;93.86;98251.78;4987921;28;20038;-57
2021/11/17 04:15:52;;;;;;;32.90;12.48;;;;;;;7.69;93.40;98252.81;4973806;28;20072;-57
2021/11/17 04:18:45;;;;;;;31.55;11.73;;;;;;;7.79;91.80;98258.59;4976472;28;20150;-57
2021/11/17 04:21:27;;;;;;;37.55;12.40;;;;;;;7.76;93.66;98258.72;4987780;28;20628;-56
2021/11/17 04:24:12;;;;;;;30.80;11.47;;;;;;;7.80;91.99;98262.94;4987979;28;20037;-57
2021/11/17 04:27:03;;;;;;;26.35;10.30;;;;;;;8.20;88.63;98259.28;4986031;28;20112;-57
2021/11/17 04:30:00;;;;;;;28.73;11.65;;;;;;;7.96;89.72;98259.91;4986537;28;20036;-56
2021/11/17 04:33:05;;;;;;;29.95;11.13;;;;;;;7.69;94.43;98263.19;4987337;28;20033;-57
2021/11/17 04:35:47;;;;;;;25.10;10.20;;;;;;;7.75;92.45;98261.34;4983455;28;20144;-57
2021/11/17 04:38:27;;;;;;;21.75;9.43;;;;;;;8.33;91.55;98265.00;5003285;28;20065;-57
2021/11/17 04:41:02;;;;;;;23.27;10.90;;;;;;;8.08;91.57;98270.00;4987921;28;20041;-58
2021/11/17 04:44:02;;;;;;;24.67;10.38;;;;;;;8.76;91.41;98268.16;4988752;28;20022;-57
2021/11/17 04:46:34;;;;;;;20.30;9.80;;;;;;;8.28;92.62;98272.91;4987927;28;20057;-54
2021/11/17 04:49:29;;;;;;;22.58;10.32;;;;;;;8.24;96.96;98270.44;4988460;28;20081;-55
2021/11/17 04:52:17;;;;;;;21.58;10.35;;;;;;;8.20;93.20;98277.47;4988521;28;20092;-57
2021/11/17 04:55:05;;;;;;;22.05;10.77;;;;;;;8.17;92.48;98274.09;4986786;28;20703;-56
2021/11/17 04:57:33;;;;;;;26.27;10.35;;;;;;;8.03;93.94;98277.06;4986123;28;20165;-56
2021/11/17 05:00:21;;;;;;;22.38;10.00;;;;;;;7.93;90.71;98273.00;4993365;28;20033;-56
2021/11/17 05:03:30;;;;;;;23.25;10.30;;;;;;;8.54;91.15;98273.97;4985021;28;20042;-57
2021/11/17 05:06:08;;;;;;;18.67;8.27;;;;;;;8.61;91.96;98275.50;4936467;29;20074;-57
2021/11/17 05:08:51;;;;;;;20.60;9.18;;;;;;;8.13;89.41;98267.28;4997151;28;20069;-56
2021/11/17 05:11:49;;;;;;;21.50;10.38;;;;;;;7.89;88.61;98274.84;4988112;28;20046;-58
2021/11/17 05:14:36;;;;;;;21.85;10.27;;;;;;;8.05;90.85;98268.34;4989455;28;20065;-56
2021/11/17 05:17:43;;;;;;;21.80;10.77;;;;;;;8.02;91.13;98275.38;4987929;28;21008;-58
2021/11/17 05:20:11;;;;;;;19.27;10.25;;;;;;;7.85;89.42;98281.84;4985831;28;20141;-56
2021/11/17 05:23:14;;;;;;;20.48;10.20;;;;;;;8.17;87.85;98281.91;4986357;28;20490;-57
2021/11/17 05:25:57;;;;;;;20.85;10.40;;;;;;;8.33;86.97;98275.41;4986688;28;20034;-57
2021/11/17 05:28:28;;;;;;;20.60;10.10;;;;;;;8.44;88.29;98272.53;4988148;28;20030;-56
2021/11/17 05:31:18;;;;;;;18.67;9.30;;;;;;;8.09;93.36;98280.34;4987038;28;20126;-57
2021/11/17 05:33:55;;;;;;;19.52;10.02;;;;;;;7.78;90.37;98277.69;4988104;28;20088;-56
2021/11/17 05:36:45;;;;;;;19.17;8.55;;;;;;;8.08;90.77;98267.41;4986680;28;20096;-56
2021/11/17 05:39:24;;;;;;;15.10;7.75;;;;;;;8.50;92.97;98274.94;4987676;28;20034;-56
2021/11/17 05:42:17;;;;;;;24.25;10.32;;;;;;;8.09;93.72;98271.72;4984987;28;20129;-57
2021/11/17 05:44:58;;;;;;;22.80;9.82;;;;;;;8.18;89.59;98276.66;4989586;28;20023;-56
2021/11/17 05:47:35;;;;;;;21.63;10.02;;;;;;;7.85;88.97;98281.00;4988348;28;20034;-56
2021/11/17 05:50:06;;;;;;;20.05;10.07;;;;;;;7.84;88.13;98282.72;4985968;28;20037;-58
2021/11/17 05:52:41;;;;;;;23.20;10.68;;;;;;;7.63;91.80;98272.91;4986380;28;20037;-57
2021/11/17 05:55:18;;;;;;;23.58;11.15;;;;;;;7.91;92.08;98284.28;4985890;28;20030;-57
2021/11/17 05:57:59;;;;;;;21.25;9.55;;;;;;;8.32;95.00;98288.41;4989266;28;20026;-57
2021/11/17 06:00:55;;;;;;;20.90;10.45;;;;;;;7.69;89.26;98285.72;4986580;28;20129;-56
2021/11/17 06:03:42;;;;;;;20.88;10.40;;;;;;;7.64;88.86;98285.81;4985156;28;20030;-56
2021/11/17 06:06:07;;;;;;;20.13;8.93;;;;;;;7.94;90.64;98292.88;4991590;28;20080;-57
2021/11/17 06:08:32;;;;;;;21.13;10.43;;;;;;;7.79;88.69;98294.13;4992102;28;20093;-57
2021/11/17 06:11:01;;;;;;;17.77;9.05;;;;;;;8.18;89.39;98302.66;4988404;28;20356;-56
2021/11/17 06:13:27;;;;;;;21.98;10.23;;;;;;;7.83;91.56;98312.19;4988777;28;20026;-57
2021/11/17 06:15:54;;;;;;;19.77;9.48;;;;;;;8.09;88.70;98313.28;4974762;28;20571;-56
2021/11/17 06:18:23;;;;;;;21.05;9.73;;;;;;;7.66;87.78;98319.53;4988036;28;20030;-57
2021/11/17 06:20:49;;;;;;;21.13;9.68;;;;;;;7.95;88.08;98316.22;4989126;28;20039;-57
2021/11/17 06:23:23;;;;;;;18.77;9.52;;;;;;;8.04;86.44;98317.75;4989940;28;20034;-57
2021/11/17 06:25:49;;;;;;;16.75;8.70;;;;;;;8.50;89.15;98319.16;4988809;28;20045;-57
2021/11/17 06:28:24;;;;;;;17.30;9.25;;;;;;;8.36;88.34;98316.88;4987086;28;20030;-57
2021/11/17 06:30:52;;;;;;;18.80;9.45;;;;;;;8.39;87.97;98318.56;4985038;28;20085;-59
2021/11/17 06:33:18;;;;;;;19.65;9.70;;;;;;;7.80;89.21;98332.19;4988836;28;20149;-56
2021/11/17 06:35:44;;;;;;;19.95;9.63;;;;;;;7.89;89.54;98327.63;4990862;28;20054;-57
2021/11/17 06:38:10;;;;;;;19.75;9.57;;;;;;;7.75;88.99;98324.50;4990128;28;20077;-56
2021/11/17 06:40:40;;;;;;;20.60;9.65;;;;;;;8.19;90.78;98329.47;4991255;28;20481;-56
2021/11/17 06:43:08;;;;;;;14.13;6.75;;;;;;;10.60;100.00;98331.66;4993165;28;20033;-57
2021/11/17 06:45:39;;;;;;;12.55;6.32;;;;;;;10.71;88.95;98326.06;4988978;28;20108;-56
2021/11/17 06:48:06;;;;;;;12.87;6.80;;;;;;;10.61;100.00;98331.59;4991408;28;20026;-56
2021/11/17 06:50:34;;;;;;;11.30;5.82;;;;;;;9.75;93.60;98328.44;4991342;28;20040;-56
2021/11/17 06:53:00;;;;;;;16.25;6.60;;;;;;;10.40;100.00;98338.44;4990675;28;20486;-58
2021/11/17 06:55:25;;;;;;;16.48;6.93;;;;;;;11.05;98.11;98337.88;4998239;28;20034;-56
2021/11/17 06:57:52;;;;;;;17.25;8.93;;;;;;;9.53;87.87;98343.91;4990675;28;20030;-57
2021/11/17 07:00:25;;;;;;;20.73;8.48;;;;;;;10.45;100.00;98338.28;4987911;28;20153;-57
2021/11/17 07:02:50;;;;;;;20.20;8.87;;;;;;;10.03;93.02;98344.00;4993173;28;20424;-56
2021/11/17 07:05:16;;;;;;;14.68;6.70;;;;;;;10.49;95.12;98347.69;4991752;28;20403;-56
2021/11/17 07:07:42;;;;;;;16.00;8.95;;;;;;;9.31;89.93;98347.16;4989765;28;20033;-55
2021/11/17 07:10:10;;;;;;;14.05;7.35;;;;;;;9.03;87.27;98350.59;4990465;28;20026;-56
2021/11/17 07:12:37;;;;;;;14.02;6.90;;;;;;;10.50;83.26;98344.19;4992653;28;20080;-57
2021/11/17 07:15:03;;;;;;;14.20;7.70;;;;;;;9.69;89.87;98342.53;4991508;28;20172;-55
2021/11/17 07:17:29;;;;;;;18.92;8.57;;;;;;;9.01;83.25;98357.59;4990234;28;20560;-56
2021/11/17 07:19:54;;;;;;;16.55;9.15;;;;;;;8.53;88.27;98354.59;4989957;28;20030;-55
2021/11/17 07:22:19;;;;;;;16.63;9.43;;;;;;;8.17;92.57;98358.09;4990824;28;20514;-55
2021/11/17 07:24:45;;;;;;;15.85;7.85;;;;;;;9.17;87.30;98357.13;4991194;28;20061;-55
2021/11/17 07:27:18;;;;;;;19.38;8.75;;;;;;;9.92;82.09;98352.19;4989557;28;20131;-54
2021/11/17 07:29:47;;;;;;;11.52;6.30;;;;;;;10.32;94.30;98353.50;4990781;28;20038;-54
2021/11/17 07:32:12;;;;;;;13.93;7.65;;;;;;;9.54;82.10;98354.28;4992416;28;20042;-55
2021/11/17 07:34:37;;;;;;;15.35;9.05;;;;;;;8.37;86.58;98360.19;4989390;28;20088;-55
2021/11/17 07:37:03;;;;;;;16.42;8.90;;;;;;;8.40;89.15;98374.84;4990549;28;20042;-55
2021/11/17 07:39:29;;;;;;;17.58;8.20;;;;;;;8.88;85.32;98372.69;4990702;28;20036;-57
2021/11/17 07:41:54;;;;;;;14.85;7.30;;;;;;;8.96;86.91;98379.44;4989972;28;20048;-55
2021/11/17 07:44:22;;;;;;;13.88;7.25;;;;;;;8.58;88.35;98379.56;4991002;28;20025;-56
2021/11/17 07:46:50;;;;;;;16.45;8.48;;;;;;;9.26;91.83;98388.09;4997986;28;20038;-54
2021/11/17 07:49:16;;;;;;;11.57;5.53;;;;;;;9.21;91.61;98384.78;4992458;28;20022;-54
2021/11/17 07:51:42;;;;;;;13.02;6.22;;;;;;;8.69;90.00;98392.28;4986459;28;20049;-55
2021/11/17 07:54:09;;;;;;;11.25;5.80;;;;;;;10.32;97.56;98378.72;4989044;28;20466;-56
2021/11/17 07:56:36;;;;;;;18.98;8.65;;;;;;;9.29;89.87;98387.16;4997940;28;20038;-56
2021/11/17 07:59:04;;;;;;;14.55;7.28;;;;;;;8.67;88.89;98389.75;4990159;28;20157;-55
2021/11/17 08:01:29;;;;;;;17.27;8.75;;;;;;;8.58;90.93;98384.78;4989524;28;20065;-56
2021/11/17 08:03:55;;;;;;;12.57;6.10;;;;;;;8.90;95.39;98392.63;4991342;28;20030;-55
2021/11/17 08:06:23;;;;;;;16.17;7.35;;;;;;;8.86;89.71;98399.66;4994267;28;20042;-54
2021/11/17 08:08:51;;;;;;;15.85;9.43;;;;;;;8.60;93.10;98401.22;4988723;28;20038;-55
2021/11/17 08:11:17;;;;;;;13.93;5.15;;;;;;;9.99;91.25;98404.97;4992591;28;20057;-56
2021/11/17 08:13:43;;;;;;;14.43;7.00;;;;;;;9.72;84.51;98407.53;4989154;28;20683;-55
2021/11/17 08:16:09;;;;;;;18.27;8.43;;;;;;;8.84;86.09;98412.69;4989008;28;20508;-55
2021/11/17 08:18:38;;;;;;;9.35;5.30;;;;;;;10.55;91.64;98410.09;4988530;28;20022;-54
2021/11/17 08:21:05;;;;;;;13.60;7.50;;;;;;;9.45;85.15;98415.28;4988466;28;20039;-54
2021/11/17 08:23:30;;;;;;;14.75;8.32;;;;;;;9.00;83.10;98410.50;4992863;28;20077;-54
2021/11/17 08:25:56;;;;;;;12.10;5.85;;;;;;;11.73;87.22;98412.72;4993364;28;20030;-54
2021/11/17 08:28:21;;;;;;;15.02;7.93;;;;;;;10.32;79.46;98417.84;4991306;28;20026;-56
2021/11/17 08:30:47;;;;;;;12.50;6.68;;;;;;;9.86;83.04;98420.13;4992522;28;20161;-55
2021/11/17 08:33:14;;;;;;;12.93;6.97;;;;;;;9.75;82.11;98428.28;4990291;28;20319;-55
2021/11/17 08:35:40;;;;;;;13.90;8.13;;;;;;;8.92;84.10;98429.84;4992589;28;20751;-56
2021/11/17 08:38:09;;;;;;;13.52;8.40;;;;;;;9.62;90.86;98437.38;4990121;28;20530;-55
2021/11/17 08:40:38;;;;;;;12.27;6.63;;;;;;;8.96;84.57;98426.25;4992357;28;20056;-54
2021/11/17 08:43:05;;;;;;;14.52;8.55;;;;;;;8.79;86.52;98429.31;4990504;28;20030;-55
2021/11/17 08:45:32;;;;;;;15.95;9.27;;;;;;;9.30;83.29;98423.56;4988852;28;20117;-56
2021/11/17 08:47:58;;;;;;;15.82;9.25;;;;;;;9.03;86.73;98414.78;4990501;28;20080;-57
2021/11/17 08:50:27;;;;;;;13.93;7.63;;;;;;;9.65;84.87;98409.47;4989767;28;20053;-55
2021/11/17 08:52:54;;;;;;;16.55;8.95;;;;;;;8.78;85.55;98422.41;4991036;28;20033;-55
2021/11/17 08:55:22;;;;;;;18.75;10.32;;;;;;;8.65;87.08;98422.72;4991086;28;20034;-55
2021/11/17 08:57:47;;;;;;;17.00;9.25;;;;;;;8.34;87.00;98426.97;4992215;28;20323;-55
2021/11/17 09:00:18;;;;;;;8.75;5.25;;;;;;;9.27;92.69;98432.28;4993002;28;20030;-56
2021/11/17 09:02:45;;;;;;;8.52;4.50;;;;;;;8.90;87.20;98427.28;4989757;28;20030;-57
2021/11/17 09:05:14;;;;;;;9.15;5.00;;;;;;;10.49;92.87;98419.88;4992301;28;20045;-56
2021/11/17 09:07:41;;;;;;;10.35;5.63;;;;;;;9.65;82.79;98426.88;4991376;28;20073;-55
2021/11/17 09:10:08;;;;;;;14.48;7.60;;;;;;;9.75;83.39;98432.66;4996292;28;20041;-56
2021/11/17 09:12:34;;;;;;;6.80;3.88;;;;;;;10.16;89.94;98423.53;4992577;28;20038;-56
2021/11/17 09:14:59;;;;;;;7.28;4.15;;;;;;;10.44;84.68;98432.19;4992031;28;20030;-57
2021/11/17 09:17:24;;;;;;;8.35;4.88;;;;;;;10.79;84.57;98439.69;4990019;28;20030;-57
2021/11/17 09:19:49;;;;;;;10.88;5.57;;;;;;;10.15;79.29;98432.25;4989753;28;20479;-56
2021/11/17 09:22:15;;;;;;;17.63;8.27;;;;;;;9.23;81.78;98429.84;4989759;28;20140;-56
2021/11/17 09:24:40;;;;;;;14.48;8.70;;;;;;;9.68;77.35;98429.34;4989333;28;20493;-56
2021/11/17 09:27:06;;;;;;;13.43;7.57;;;;;;;9.15;81.02;98431.78;4989509;28;20563;-56
2021/11/17 09:29:33;;;;;;;10.63;6.40;;;;;;;9.96;86.07;98436.31;4989283;28;20385;-56
2021/11/17 09:31:59;;;;;;;11.10;7.10;;;;;;;10.75;81.37;98427.66;4991447;28;20042;-56
2021/11/17 09:34:25;;;;;;;6.18;3.50;;;;;;;12.70;84.84;98436.72;4997693;28;20037;-56
2021/11/17 09:36:50;;;;;;;10.70;6.07;;;;;;;11.16;78.08;98432.31;4990072;28;20105;-57
2021/11/17 09:39:16;;;;;;;6.63;3.80;;;;;;;11.59;86.65;98433.31;4989274;28;20068;-57
2021/11/17 09:41:48;;;;;;;6.28;3.28;;;;;;;11.73;79.84;98433.63;4988506;28;20092;-56
2021/11/17 09:44:18;;;;;;;14.98;8.73;;;;;;;10.23;75.00;98434.59;4989266;28;20117;-56
2021/11/17 09:46:46;;;;;;;6.50;3.95;;;;;;;12.14;78.24;98439.00;4988667;28;20495;-56
2021/11/17 09:49:44;;;;;;;13.35;7.72;;;;;;;10.96;91.56;98441.69;4989114;28;20034;-56
2021/11/17 09:52:13;;;;;;;8.25;4.97;;;;;;;10.81;79.29;98439.63;4991880;28;20084;-56
2021/11/17 09:54:44;;;;;;;11.95;7.32;;;;;;;10.22;77.33;98444.16;4990921;28;20125;-56
2021/11/17 09:57:22;;;;;;;9.43;5.10;;;;;;;9.95;81.64;98445.91;4990258;28;20631;-56
2021/11/17 09:59:56;;;;;;;10.25;6.40;;;;;;;10.80;82.95;98449.19;4988838;28;20117;-55
2021/11/17 10:02:28;;;;;;;7.93;4.53;;;;;;;11.04;80.06;98443.19;4989223;28;20039;-55
2021/11/17 10:05:09;;;;;;;9.82;5.10;;;;;;;10.60;77.90;98444.69;4988920;28;20056;-55
2021/11/17 10:13:09;;;;;;;10.10;5.97;;;;;;;10.63;79.37;98443.72;4988332;28;20097;-56
2021/11/17 10:15:38;;;;;;;8.65;5.28;;;;;;;11.04;74.68;98444.03;4990399;28;20113;-56
2021/11/17 10:18:16;;;;;;;8.95;5.75;;;;;;;10.42;75.61;98445.28;4992181;28;20040;-59
2021/11/17 10:20:48;;;;;;;7.13;4.70;;;;;;;10.44;77.50;98453.06;4991934;28;20041;-56
2021/11/17 10:23:19;;;;;;;7.85;4.25;;;;;;;11.56;81.60;98442.13;4994610;28;20030;-55
2021/11/17 10:26:02;;;;;;;13.57;7.72;;;;;;;10.60;78.89;98443.81;4991622;28;20125;-56
2021/11/17 10:29:02;;;;;;;12.77;7.07;;;;;;;10.27;76.93;98441.41;4995822;28;20042;-55
2021/11/17 10:31:46;;;;;;;12.63;7.85;;;;;;;9.76;79.62;98435.22;4986847;28;20064;-56
2021/11/17 10:34:28;;;;;;;10.65;6.72;;;;;;;10.86;81.60;98440.31;4994112;28;20924;-56
2021/11/17 10:37:08;;;;;;;8.65;5.30;;;;;;;10.08;83.80;98435.94;4994348;28;20053;-55
2021/11/17 10:39:37;;;;;;;9.13;4.95;;;;;;;10.27;81.96;98437.94;4993610;28;20101;-57
2021/11/17 10:42:20;;;;;;;14.25;8.77;;;;;;;9.72;77.94;98430.97;4991869;28;20099;-55
2021/11/17 10:44:55;;;;;;;12.25;7.07;;;;;;;9.55;81.11;98441.91;4993767;28;20496;-55
2021/11/17 10:47:33;;;;;;;13.85;8.23;;;;;;;9.35;81.10;98441.63;4992983;28;20077;-57
2021/11/17 10:50:04;;;;;;;7.15;4.38;;;;;;;11.63;75.36;98442.72;4993681;28;20420;-55
2021/11/17 10:52:38;;;;;;;9.10;4.78;;;;;;;11.89;76.43;98441.75;4992501;28;20034;-55
2021/11/17 10:55:13;;;;;;;14.40;7.70;;;;;;;9.88;81.26;98441.78;4992828;28;20037;-56
2021/11/17 10:57:39;;;;;;;10.45;6.25;;;;;;;11.74;79.85;98445.81;5000511;28;20864;-55
2021/11/17 11:00:08;;;;;;;6.75;3.75;;;;;;;14.30;76.17;98445.19;4990644;28;20594;-57
2021/11/17 11:02:36;;;;;;;7.95;3.80;;;;;;;13.74;77.07;98440.88;4998114;28;20597;-56
2021/11/17 11:05:08;;;;;;;10.68;6.82;;;;;;;11.41;69.79;98449.69;4992372;28;20056;-57
2021/11/17 11:07:36;;;;;;;;;;;;;;;11.07;76.76;98456.97;4992878;28;20528;-56
2021/11/17 11:10:11;;;;;;;7.93;4.80;;;;;;;12.09;77.28;98456.69;4994534;28;19920;-57
2021/11/17 11:12:38;;;;;;;10.30;5.68;;;;;;;10.37;76.43;98461.09;4995436;28;20416;-56
2021/11/17 11:15:09;;;;;;;6.18;3.72;;;;;;;12.31;71.10;98458.41;4992397;28;20042;-58
2021/11/17 11:17:40;;;;;;;9.10;4.10;;;;;;;11.88;81.44;98453.09;4991925;28;20037;-56
2021/11/17 11:20:18;;;;;;;5.70;3.47;;;;;;;14.46;73.35;98455.75;4993137;28;20273;-57
2021/11/17 11:22:58;;;;;;;7.55;4.85;;;;;;;13.86;71.88;98456.03;4992079;28;20061;-56
2021/11/17 11:25:36;;;;;;;9.07;5.40;;;;;;;11.54;70.08;98448.31;4991496;28;20034;-57
2021/11/17 11:28:19;;;;;;;7.13;4.15;;;;;;;11.93;69.74;98459.03;4993040;28;20041;-56
2021/11/17 11:30:44;;;;;;;6.20;4.10;;;;;;;12.16;72.73;98449.41;4993236;28;20046;-55
2021/11/17 11:33:53;;;;;;;6.35;4.00;;;;;;;12.35;79.65;98446.88;4991163;28;20032;-58
2021/11/17 11:36:20;;;;;;;9.27;5.47;;;;;;;12.18;67.78;98444.13;4980756;28;20523;-56
2021/11/17 11:39:11;;;;;;;5.10;3.45;;;;;;;10.46;75.10;98446.03;4993915;28;20117;-56
2021/11/17 11:42:06;;;;;;;5.00;2.97;;;;;;;12.47;78.94;98446.41;4991249;28;20049;-55
2021/11/17 11:44:33;;;;;;;6.85;3.95;;;;;;;11.91;73.49;98434.72;4990671;28;20688;-56
2021/11/17 11:46:59;;;;;;;7.18;3.70;;;;;;;12.77;73.24;98443.41;4991723;28;20120;-55
2021/11/17 11:49:45;;;;;;;7.35;4.50;;;;;;;11.37;71.74;98431.50;4991824;28;20105;-56
2021/11/17 11:52:23;;;;;;;7.07;4.53;;;;;;;11.94;79.28;98436.34;4999315;28;20042;-57
2021/11/17 11:54:51;;;;;;;6.25;4.38;;;;;;;11.43;72.32;98445.25;4996042;28;20036;-56
2021/11/17 11:57:25;;;;;;;5.85;3.63;;;;;;;12.80;70.48;98447.66;4989961;28;20439;-56
2021/11/17 12:00:17;;;;;;;5.00;3.17;;;;;;;11.87;70.58;98450.53;4991695;28;20034;-56
2021/11/17 12:02:58;;;;;;;8.65;6.07;;;;;;;11.94;69.20;98447.66;4991941;28;20046;-56
2021/11/17 12:05:39;;;;;;;4.60;3.00;;;;;;;14.12;69.18;98456.59;4991883;28;20036;-55
2021/11/17 12:08:13;;;;;;;6.80;3.60;;;;;;;14.48;66.33;98453.06;4989739;28;20061;-56
2021/11/17 12:10:48;;;;;;;5.30;3.20;;;;;;;14.26;72.57;98449.72;4990298;28;20660;-57
2021/11/17 12:13:20;;;;;;;9.73;5.97;;;;;;;12.68;69.93;98456.88;4992639;28;20117;-56
2021/11/17 12:16:09;;;;;;;5.43;3.53;;;;;;;13.43;71.51;98463.25;4990536;28;20040;-55
2021/11/17 12:18:51;;;;;;;5.18;3.45;;;;;;;12.16;66.02;98452.03;4991623;28;20018;-56
2021/11/17 12:21:20;;;;;;;7.10;4.20;;;;;;;12.53;69.37;98463.59;4993523;28;20148;-55
2021/11/17 12:24:05;;;;;;;7.90;4.80;;;;;;;11.35;69.73;98458.59;4990771;28;20591;-55
2021/11/17 12:26:34;;;;;;;5.82;4.07;;;;;;;12.38;67.58;98457.25;4990485;28;20046;-58
2021/11/17 12:29:16;;;;;;;5.47;3.58;;;;;;;13.58;70.41;98473.06;4992958;28;20070;-56
2021/11/17 12:32:07;;;;;;;6.17;3.50;;;;;;;13.64;75.19;98461.44;4992530;28;20041;-56
2021/11/17 12:34:49;;;;;;;8.23;5.22;;;;;;;11.06;69.16;98455.25;4992343;28;20112;-56
2021/11/17 12:37:32;;;;;;;5.75;3.58;;;;;;;13.84;70.19;98468.34;4988593;28;20137;-56
2021/11/17 12:40:03;;;;;;;5.50;3.92;;;;;;;13.69;69.13;98455.06;4988959;28;20053;-56
2021/11/17 12:42:41;;;;;;;5.95;3.90;;;;;;;12.53;74.29;98461.84;4999186;28;20054;-56
2021/11/17 12:45:18;;;;;;;6.38;3.70;;;;;;;14.31;60.76;98456.53;4989961;28;20029;-54
2021/11/17 12:47:58;;;;;;;4.88;3.10;;;;;;;18.04;58.79;98453.13;4991667;28;20065;-56
2021/11/17 12:50:35;;;;;;;4.88;3.10;;;;;;;14.32;67.66;98452.97;4988773;28;20065;-56
2021/11/17 12:53:05;;;;;;;4.72;3.13;;;;;;;14.79;60.88;98452.41;5005066;28;20060;-56
2021/11/17 12:55:50;;;;;;;5.10;3.08;;;;;;;14.04;61.09;98459.53;4990558;28;20535;-56
2021/11/17 12:58:25;;;;;;;5.88;3.88;;;;;;;14.84;58.63;98460.91;4988770;28;20029;-56
2021/11/17 13:01:11;;;;;;;5.43;3.75;;;;;;;14.30;60.91;98462.69;4993797;28;20045;-58
2021/11/17 13:03:49;;;;;;;5.50;2.95;;;;;;;15.26;61.11;98469.28;4993214;28;20423;-56
2021/11/17 13:06:33;;;;;;;5.00;3.30;;;;;;;14.14;61.64;98468.69;4991838;28;20050;-56
2021/11/17 13:09:04;;;;;;;6.72;4.28;;;;;;;12.78;67.10;98476.53;4988310;28;20042;-56
2021/11/17 13:11:30;;;;;;;4.68;2.85;;;;;;;16.50;61.27;98474.75;4987951;28;20093;-56
2021/11/17 13:13:58;;;;;;;6.60;3.83;;;;;;;13.86;62.31;98482.28;4989051;28;20036;-56
2021/11/17 13:16:33;;;;;;;4.50;3.00;;;;;;;16.16;62.25;98481.94;4990358;28;20103;-57
2021/11/17 13:19:02;;;;;;;5.15;3.17;;;;;;;12.63;65.29;98488.50;4990380;28;20865;-56
2021/11/17 13:21:29;;;;;;;8.82;4.55;;;;;;;11.75;65.88;98481.47;4988628;28;20105;-56
2021/11/17 13:23:57;;;;;;;4.13;2.83;;;;;;;15.18;64.82;98477.53;4991340;28;20037;-55
2021/11/17 13:26:43;;;;;;;4.47;2.60;;;;;;;15.25;59.33;98480.72;4990324;28;20829;-56
2021/11/17 13:29:29;;;;;;;6.85;4.38;;;;;;;11.75;68.57;98478.84;4991019;28;20027;-57
2021/11/17 13:32:03;;;;;;;6.10;4.00;;;;;;;11.51;71.68;98474.56;5003870;28;20588;-57
2021/11/17 13:34:50;;;;;;;4.65;2.92;;;;;;;13.06;65.06;98477.94;4990156;28;20121;-55
2021/11/17 13:37:22;;;;;;;5.60;2.70;;;;;;;13.30;62.16;98479.50;4991958;28;20065;-57
2021/11/17 13:39:57;;;;;;;7.20;5.03;;;;;;;10.61;66.39;98487.28;4989667;28;20041;-57
2021/11/17 13:42:24;;;;;;;4.68;3.20;;;;;;;10.40;73.82;98488.81;4988386;28;20080;-56
2021/11/17 13:44:50;;;;;;;5.70;3.78;;;;;;;11.64;70.62;98486.25;4990627;28;20475;-55
2021/11/17 13:47:18;;;;;;;6.80;4.60;;;;;;;10.25;70.31;98494.50;4990589;28;20515;-55
2021/11/17 13:49:48;;;;;;;7.60;5.40;;;;;;;9.87;70.61;98491.31;4990513;28;20035;-55
2021/11/17 13:52:17;;;;;;;4.93;2.90;;;;;;;12.13;76.19;98488.75;5001943;28;20495;-56
2021/11/17 13:54:43;;;;;;;5.55;3.53;;;;;;;10.87;72.57;98489.00;4994279;28;20026;-56
2021/11/17 13:57:10;;;;;;;4.53;3.00;;;;;;;11.72;71.38;98488.56;4992271;28;20042;-56
2021/11/17 13:59:36;;;;;;;6.43;3.30;;;;;;;11.88;74.41;98494.91;4995925;28;20101;-55
2021/11/17 14:02:02;;;;;;;4.15;2.70;;;;;;;12.96;73.56;98500.19;5008848;28;20153;-56
2021/11/17 14:04:28;;;;;;;7.00;4.70;;;;;;;10.82;69.32;98500.50;5002092;28;20032;-56
2021/11/17 14:06:56;;;;;;;7.90;4.55;;;;;;;11.23;68.58;98498.19;4994823;28;20038;-55
2021/11/17 14:09:22;;;;;;;6.32;3.42;;;;;;;12.49;70.05;98502.13;4998105;28;20438;-56
2021/11/17 14:11:48;;;;;;;4.35;2.60;;;;;;;13.41;72.34;98499.16;4991764;28;20092;-56
2021/11/17 14:14:13;;;;;;;8.93;4.68;;;;;;;11.79;65.78;98502.25;4991864;28;20026;-56
2021/11/17 14:16:39;;;;;;;3.95;2.65;;;;;;;12.54;69.15;98500.19;4993925;28;20042;-56
2021/11/17 14:19:04;;;;;;;4.10;2.72;;;;;;;12.60;74.20;98500.84;4993549;28;20072;-55
2021/11/17 14:21:30;;;;;;;4.05;2.75;;;;;;;12.58;77.93;98513.16;4992858;28;20527;-57
2021/11/17 14:23:56;;;;;;;7.97;4.95;;;;;;;9.77;72.51;98509.00;4993646;28;20030;-56
2021/11/17 14:26:22;;;;;;;6.45;3.63;;;;;;;11.53;66.90;98504.09;4995247;28;20070;-56
2021/11/17 14:29:10;;;;;;;5.55;3.33;;;;;;;12.22;65.59;98511.06;4993518;28;20035;-56
2021/11/17 14:31:44;;;;;;;4.55;2.80;;;;;;;12.73;68.15;98509.88;4994065;28;20050;-57
2021/11/17 14:34:09;;;;;;;4.90;3.33;;;;;;;11.18;69.47;98514.03;4992439;28;20029;-56
2021/11/17 14:36:43;;;;;;;7.30;4.60;;;;;;;11.66;66.57;98510.56;4994748;28;20045;-55
2021/11/17 14:39:09;;;;;;;8.07;4.43;;;;;;;10.93;67.33;98524.47;4993380;28;20026;-57